createdAt,value
2023-04-09T00:00:43.293Z,12.93
2023-04-09T00:03:10.166Z,10.55
2023-04-09T00:05:43.770Z,12.13
2023-04-09T00:08:10.511Z,11.32
2023-04-09T00:10:37.539Z,10.82
2023-04-09T00:13:04.286Z,11.95
2023-04-09T00:15:32.349Z,10.70
2023-04-09T00:18:00.137Z,11.15
2023-04-09T00:20:27.174Z,10.93
2023-04-09T00:22:54.509Z,11.77
2023-04-09T00:25:21.328Z,10.85
2023-04-09T00:27:48.344Z,11.27
2023-04-09T00:30:16.189Z,13.68
2023-04-09T00:32:42.842Z,13.55
2023-04-09T00:35:09.761Z,12.85
2023-04-09T00:37:36.519Z,12.25
2023-04-09T00:40:03.912Z,14.18
2023-04-09T00:42:34.885Z,12.85
2023-04-09T00:45:02.212Z,12.13
2023-04-09T00:47:30.068Z,13.05
2023-04-09T00:49:57.669Z,13.45
2023-04-09T00:52:25.224Z,13.43
2023-04-09T00:54:52.839Z,14.43
2023-04-09T00:57:19.719Z,15.00
2023-04-09T00:59:46.723Z,13.27
2023-04-09T01:02:13.504Z,14.60
2023-04-09T01:04:42.803Z,13.45
2023-04-09T01:07:31.027Z,13.20
2023-04-09T01:10:16.482Z,13.05
2023-04-09T01:12:55.139Z,14.35
2023-04-09T01:15:31.491Z,14.18
2023-04-09T01:18:36.535Z,14.63
2023-04-09T01:21:09.956Z,14.43
2023-04-09T01:23:47.647Z,15.15
2023-04-09T01:26:21.661Z,14.68
2023-04-09T01:28:56.269Z,13.93
2023-04-09T01:31:34.531Z,14.68
2023-04-09T01:34:02.017Z,14.45
2023-04-09T01:36:31.647Z,14.20
2023-04-09T01:39:01.571Z,14.45
2023-04-09T01:41:31.149Z,15.65
2023-04-09T01:44:01.992Z,14.57
2023-04-09T01:46:30.201Z,14.68
2023-04-09T01:48:57.648Z,14.80
2023-04-09T01:51:24.686Z,14.90
2023-04-09T01:53:51.725Z,14.55
2023-04-09T01:56:18.414Z,13.38
2023-04-09T01:58:45.337Z,14.40
2023-04-09T02:01:36.954Z,14.40
2023-04-09T02:04:10.112Z,13.40
2023-04-09T02:06:47.638Z,13.63
2023-04-09T02:09:19.548Z,13.00
2023-04-09T02:11:49.224Z,13.82
2023-04-09T02:14:17.301Z,15.25
2023-04-09T02:16:44.627Z,14.98
2023-04-09T02:19:11.746Z,14.32
2023-04-09T02:21:38.462Z,14.23
2023-04-09T02:24:05.952Z,14.18
2023-04-09T02:26:32.584Z,14.95
2023-04-09T02:28:59.428Z,11.70
2023-04-09T02:31:26.128Z,14.90
2023-04-09T02:33:54.303Z,15.48
2023-04-09T02:36:21.332Z,15.40
2023-04-09T02:38:48.132Z,16.13
2023-04-09T02:41:14.979Z,15.07
2023-04-09T02:43:41.807Z,15.25
2023-04-09T02:46:08.803Z,15.35
2023-04-09T02:48:36.125Z,14.77
2023-04-09T02:51:06.040Z,15.60
2023-04-09T02:53:33.069Z,15.13
2023-04-09T02:56:00.030Z,15.90
2023-04-09T02:58:26.961Z,15.52
2023-04-09T03:00:53.671Z,15.38
2023-04-09T03:03:20.568Z,14.32
2023-04-09T03:05:47.305Z,14.88
2023-04-09T03:08:14.052Z,14.48
2023-04-09T03:10:40.862Z,15.40
2023-04-09T03:13:07.548Z,15.93
2023-04-09T03:15:34.396Z,14.05
2023-04-09T03:18:01.170Z,16.67
2023-04-09T03:20:28.014Z,15.20
2023-04-09T03:22:54.681Z,16.08
2023-04-09T03:25:21.743Z,16.60
2023-04-09T03:27:48.580Z,15.52
2023-04-09T03:30:15.667Z,15.85
2023-04-09T03:32:42.496Z,14.40
2023-04-09T03:35:09.599Z,14.18
2023-04-09T03:37:36.538Z,14.88
2023-04-09T03:40:03.997Z,14.38
2023-04-09T03:42:31.565Z,14.32
2023-04-09T03:44:58.244Z,15.77
2023-04-09T03:47:24.990Z,15.02
2023-04-09T03:49:52.055Z,15.55
2023-04-09T03:52:18.870Z,15.30
2023-04-09T03:54:45.840Z,14.45
2023-04-09T03:57:12.595Z,14.95
2023-04-09T03:59:39.303Z,14.77
2023-04-09T04:02:06.107Z,16.90
2023-04-09T04:04:33.061Z,15.27
2023-04-09T04:06:59.820Z,15.85
2023-04-09T04:09:26.858Z,16.30
2023-04-09T04:11:53.608Z,16.05
2023-04-09T04:14:20.354Z,16.17
2023-04-09T04:16:47.083Z,15.90
2023-04-09T04:19:13.806Z,16.20
2023-04-09T04:21:40.862Z,15.43
2023-04-09T04:24:07.464Z,15.30
2023-04-09T04:26:34.052Z,15.68
2023-04-09T04:29:00.975Z,15.82
2023-04-09T04:31:27.687Z,15.45
2023-04-09T04:33:54.482Z,16.83
2023-04-09T04:36:21.225Z,17.05
2023-04-09T04:38:47.919Z,17.10
2023-04-09T04:41:14.608Z,16.70
2023-04-09T04:43:41.722Z,16.15
2023-04-09T04:46:08.906Z,17.95
2023-04-09T04:48:35.887Z,16.65
2023-04-09T04:51:03.685Z,18.48
2023-04-09T04:53:30.507Z,19.33
2023-04-09T04:55:57.327Z,20.67
2023-04-09T04:58:25.120Z,19.25
2023-04-09T05:00:51.871Z,18.63
2023-04-09T05:03:18.750Z,17.17
2023-04-09T05:05:46.503Z,18.13
2023-04-09T05:08:13.525Z,20.55
2023-04-09T05:10:44.098Z,21.17
2023-04-09T05:13:10.953Z,17.55
2023-04-09T05:15:39.597Z,15.02
2023-04-09T05:18:07.676Z,12.10
2023-04-09T05:20:35.061Z,13.70
2023-04-09T05:23:02.098Z,11.57
2023-04-09T05:25:28.745Z,13.48
2023-04-09T05:27:56.084Z,13.13
2023-04-09T05:30:22.796Z,13.90
2023-04-09T05:32:49.725Z,15.10
2023-04-09T05:35:16.478Z,15.32
2023-04-09T05:37:43.334Z,14.27
2023-04-09T05:40:11.089Z,14.55
2023-04-09T05:42:38.198Z,14.57
2023-04-09T05:45:05.577Z,10.93
2023-04-09T05:47:32.577Z,11.32
2023-04-09T05:49:59.388Z,12.07
2023-04-09T05:52:27.056Z,12.05
2023-04-09T05:54:53.847Z,10.48
2023-04-09T05:57:20.903Z,9.90
2023-04-09T05:59:48.071Z,9.70
2023-04-09T06:02:15.050Z,9.90
2023-04-09T06:04:42.156Z,7.50
2023-04-09T06:07:08.904Z,9.98
2023-04-09T06:09:36.176Z,11.02
2023-04-09T06:12:02.835Z,12.15
2023-04-09T06:14:30.188Z,8.45
2023-04-09T06:16:59.455Z,11.32
2023-04-09T06:19:26.349Z,9.07
2023-04-09T06:21:53.037Z,8.25
2023-04-09T06:24:19.825Z,8.70
2023-04-09T06:26:47.316Z,8.30
2023-04-09T06:29:14.121Z,9.00
2023-04-09T06:31:41.031Z,9.75
2023-04-09T06:34:08.042Z,8.77
2023-04-09T06:36:36.831Z,7.50
2023-04-09T06:39:03.690Z,8.57
2023-04-09T06:41:30.912Z,5.93
2023-04-09T06:43:57.872Z,8.27
2023-04-09T06:46:24.702Z,9.20
2023-04-09T06:48:51.515Z,8.35
2023-04-09T06:51:18.676Z,9.57
2023-04-09T06:53:45.619Z,9.60
2023-04-09T06:56:12.389Z,8.15
2023-04-09T06:58:39.275Z,8.95
2023-04-09T07:01:06.598Z,7.78
2023-04-09T07:03:33.736Z,9.95
2023-04-09T07:06:00.891Z,6.43
2023-04-09T07:08:28.753Z,6.15
2023-04-09T07:10:55.539Z,7.53
2023-04-09T07:13:22.714Z,8.15
2023-04-09T07:15:49.555Z,7.88
2023-04-09T07:18:16.291Z,6.95
2023-04-09T07:20:42.984Z,10.43
2023-04-09T07:23:09.791Z,6.68
2023-04-09T07:25:36.584Z,6.90
2023-04-09T07:28:03.387Z,8.60
2023-04-09T07:30:30.791Z,8.23
2023-04-09T07:32:58.011Z,8.90
2023-04-09T07:35:25.145Z,6.80
2023-04-09T07:37:52.050Z,5.85
2023-04-09T07:40:18.908Z,8.48
2023-04-09T07:42:45.828Z,9.73
2023-04-09T07:45:12.533Z,8.40
2023-04-09T07:47:43.311Z,7.63
2023-04-09T07:50:10.783Z,9.65
2023-04-09T07:52:37.546Z,7.28
2023-04-09T07:55:04.734Z,7.60
2023-04-09T07:57:33.297Z,6.68
2023-04-09T08:00:00.038Z,6.03
2023-04-09T08:02:27.159Z,6.95
2023-04-09T08:04:54.270Z,7.00
2023-04-09T08:07:21.279Z,6.38
2023-04-09T08:09:48.050Z,4.90
2023-04-09T08:12:16.698Z,4.57
2023-04-09T08:14:44.062Z,7.22
2023-04-09T08:17:10.991Z,8.65
2023-04-09T08:19:39.800Z,6.15
2023-04-09T08:22:07.917Z,5.47
2023-04-09T08:24:35.475Z,5.85
2023-04-09T08:27:02.335Z,4.30
2023-04-09T08:29:29.533Z,5.32
2023-04-09T08:31:57.372Z,4.88
2023-04-09T08:34:24.073Z,5.97
2023-04-09T08:36:51.495Z,5.53
2023-04-09T08:39:21.635Z,4.53
2023-04-09T08:41:48.818Z,7.85
2023-04-09T08:44:15.660Z,4.80
2023-04-09T08:46:42.993Z,5.47
2023-04-09T08:49:10.982Z,7.50
2023-04-09T08:51:37.888Z,8.52
2023-04-09T08:54:05.198Z,6.60
2023-04-09T08:56:32.172Z,5.70
2023-04-09T08:58:59.327Z,5.93
2023-04-09T09:01:30.718Z,5.88
2023-04-09T09:04:04.310Z,4.60
2023-04-09T09:06:36.692Z,7.30
2023-04-09T09:09:07.834Z,6.32
2023-04-09T09:11:36.420Z,6.93
2023-04-09T09:14:05.572Z,7.30
2023-04-09T09:16:34.857Z,6.13
2023-04-09T09:19:03.191Z,6.78
2023-04-09T09:21:30.434Z,6.80
2023-04-09T09:23:57.896Z,6.43
2023-04-09T09:26:27.465Z,5.18
2023-04-09T09:28:54.944Z,5.93
2023-04-09T09:31:23.172Z,6.22
2023-04-09T09:33:51.229Z,5.68
2023-04-09T09:36:35.219Z,5.78
2023-04-09T09:39:03.933Z,7.75
2023-04-09T09:41:31.271Z,6.10
2023-04-09T09:43:58.115Z,5.35
2023-04-09T09:46:26.441Z,5.72
2023-04-09T09:48:53.598Z,6.07
2023-04-09T09:51:26.068Z,5.88
2023-04-09T09:56:25.291Z,6.43
2023-04-09T09:59:02.144Z,7.00
2023-04-09T10:01:28.871Z,5.95
2023-04-09T10:03:57.621Z,5.53
2023-04-09T10:06:24.592Z,6.93
2023-04-09T10:08:52.712Z,5.45
2023-04-09T10:11:20.913Z,5.15
2023-04-09T10:13:54.540Z,5.50
2023-04-09T10:16:23.381Z,5.75
2023-04-09T10:18:51.175Z,4.03
2023-04-09T10:21:39.499Z,4.70
2023-04-09T10:24:08.212Z,5.05
2023-04-09T10:26:36.599Z,5.53
2023-04-09T10:29:08.400Z,6.50
2023-04-09T10:31:52.537Z,4.38
2023-04-09T10:34:25.050Z,4.72
2023-04-09T10:36:55.492Z,4.47
2023-04-09T10:39:28.274Z,5.35
2023-04-09T10:41:56.219Z,4.72
2023-04-09T10:44:27.778Z,4.78
2023-04-09T10:46:55.631Z,4.57
2023-04-09T10:49:24.709Z,4.47
2023-04-09T10:52:11.989Z,4.40
2023-04-09T10:54:40.481Z,4.35
2023-04-09T10:57:07.186Z,4.40
2023-04-09T10:59:34.722Z,4.03
2023-04-09T11:02:01.694Z,4.20
2023-04-09T11:05:11.907Z,4.22
2023-04-09T11:08:04.445Z,4.60
2023-04-09T11:12:58.572Z,4.15
2023-04-09T11:15:25.388Z,4.65
2023-04-09T11:17:52.346Z,4.38
2023-04-09T11:20:25.517Z,4.45
2023-04-09T11:22:54.652Z,4.68
2023-04-09T11:25:26.489Z,4.30
2023-04-09T11:27:53.824Z,5.07
2023-04-09T11:30:20.741Z,3.55
2023-04-09T11:32:49.022Z,4.28
2023-04-09T11:35:17.916Z,4.10
2023-04-09T11:37:45.622Z,4.45
2023-04-09T11:40:26.799Z,5.20
2023-04-09T11:42:54.954Z,4.00
2023-04-09T11:45:25.786Z,3.72
2023-04-09T11:47:53.648Z,3.22
2023-04-09T11:50:22.007Z,3.50
2023-04-09T11:52:49.809Z,3.90
2023-04-09T11:55:26.794Z,4.00
2023-04-09T11:57:58.225Z,4.95
2023-04-09T12:00:25.206Z,3.80
2023-04-09T12:03:01.307Z,4.20
2023-04-09T12:05:31.177Z,4.68
2023-04-09T12:08:09.123Z,6.95
2023-04-09T12:10:37.890Z,7.32
2023-04-09T12:13:13.953Z,7.80
2023-04-09T12:15:43.725Z,7.40
2023-04-09T12:18:12.898Z,5.68
2023-04-09T12:20:42.589Z,6.82
2023-04-09T12:23:10.050Z,8.45
2023-04-09T12:25:43.595Z,7.63
2023-04-09T12:28:13.807Z,6.32
2023-04-09T12:30:40.972Z,9.38
2023-04-09T12:33:10.257Z,6.95
2023-04-09T12:35:41.099Z,6.82
2023-04-09T12:38:07.849Z,7.50
2023-04-09T12:40:36.442Z,7.00
2023-04-09T12:43:03.871Z,7.22
2023-04-09T12:45:31.617Z,6.43
2023-04-09T12:47:58.940Z,6.43
2023-04-09T12:50:26.102Z,6.32
2023-04-09T12:52:52.912Z,5.45
2023-04-09T12:55:20.190Z,5.68
2023-04-09T12:57:47.390Z,4.70
2023-04-09T13:00:15.111Z,6.88
2023-04-09T13:02:42.482Z,6.00
2023-04-09T13:05:09.630Z,6.50
2023-04-09T13:07:36.374Z,5.90
2023-04-09T13:10:03.504Z,7.20
2023-04-09T13:12:30.668Z,6.07
2023-04-09T13:14:59.394Z,7.47
2023-04-09T13:17:26.349Z,6.40
2023-04-09T13:19:53.634Z,6.82
2023-04-09T13:22:20.339Z,6.32
2023-04-09T13:24:47.364Z,6.32
2023-04-09T13:27:15.007Z,6.20
2023-04-09T13:29:41.942Z,6.40
2023-04-09T13:32:11.175Z,6.13
2023-04-09T13:34:39.497Z,6.88
2023-04-09T13:37:06.789Z,6.63
2023-04-09T13:39:33.526Z,7.63
2023-04-09T13:42:03.660Z,6.30
2023-04-09T13:44:35.279Z,7.78
2023-04-09T13:47:02.253Z,6.85
2023-04-09T13:49:30.397Z,7.53
2023-04-09T13:51:57.749Z,6.50
2023-04-09T13:54:24.477Z,7.57
2023-04-09T13:56:51.712Z,7.35
2023-04-09T13:59:18.530Z,8.57
2023-04-09T14:01:45.466Z,8.35
2023-04-09T14:04:12.483Z,8.05
2023-04-09T14:06:39.574Z,8.07
2023-04-09T14:09:06.513Z,8.65
2023-04-09T14:11:33.241Z,7.80
2023-04-09T14:13:59.942Z,9.32
2023-04-09T14:16:28.233Z,9.82
2023-04-09T14:18:55.314Z,9.90
2023-04-09T14:21:22.816Z,9.65
2023-04-09T14:23:49.712Z,9.13
2023-04-09T14:26:16.659Z,7.70
2023-04-09T14:28:47.262Z,7.60
2023-04-09T14:31:14.751Z,7.47
2023-04-09T14:33:41.440Z,8.50
2023-04-09T14:36:08.396Z,8.65
2023-04-09T14:38:35.540Z,8.45
2023-04-09T14:41:02.395Z,8.40
2023-04-09T14:43:29.046Z,9.85
2023-04-09T14:45:55.734Z,9.32
2023-04-09T14:48:22.427Z,8.00
2023-04-09T14:50:51.462Z,7.88
2023-04-09T14:53:18.197Z,9.45
2023-04-09T14:55:44.892Z,9.13
2023-04-09T14:58:12.071Z,8.85
2023-04-09T15:00:39.337Z,7.80
2023-04-09T15:03:06.716Z,8.32
2023-04-09T15:05:33.722Z,8.75
2023-04-09T15:08:00.632Z,7.45
2023-04-09T15:10:27.613Z,8.98
2023-04-09T15:12:54.195Z,8.63
2023-04-09T15:15:21.091Z,7.65
2023-04-09T15:17:48.200Z,11.27
2023-04-09T15:20:17.354Z,9.50
2023-04-09T15:22:44.041Z,7.53
2023-04-09T15:25:14.178Z,8.40
2023-04-09T15:27:41.250Z,8.20
2023-04-09T15:30:09.488Z,8.52
2023-04-09T15:32:36.252Z,7.60
2023-04-09T15:35:02.899Z,7.57
2023-04-09T15:37:29.765Z,8.13
2023-04-09T15:39:56.826Z,7.32
2023-04-09T15:42:23.697Z,8.70
2023-04-09T15:44:50.991Z,8.63
2023-04-09T15:47:18.508Z,9.13
2023-04-09T15:49:45.170Z,9.45
2023-04-09T15:52:12.074Z,9.85
2023-04-09T15:54:39.178Z,9.32
2023-04-09T15:57:06.144Z,9.05
2023-04-09T15:59:32.857Z,8.60
2023-04-09T16:01:59.717Z,9.77
2023-04-09T16:04:27.765Z,8.77
2023-04-09T16:06:56.308Z,9.18
2023-04-09T16:09:23.936Z,10.73
2023-04-09T16:11:51.240Z,9.30
2023-04-09T16:14:18.144Z,8.90
2023-04-09T16:16:49.972Z,9.38
2023-04-09T16:19:17.935Z,10.18
2023-04-09T16:21:45.656Z,8.85
2023-04-09T16:24:15.684Z,10.05
2023-04-09T16:26:44.086Z,9.13
2023-04-09T16:29:11.521Z,9.48
2023-04-09T16:31:39.208Z,8.60
2023-04-09T16:34:05.847Z,9.55
2023-04-09T16:36:33.704Z,8.75
2023-04-09T16:39:00.433Z,8.82
2023-04-09T16:41:27.159Z,8.73
2023-04-09T16:43:54.030Z,8.82
2023-04-09T16:46:20.956Z,9.02
2023-04-09T16:48:47.953Z,10.82
2023-04-09T16:51:15.123Z,9.70
2023-04-09T16:53:41.926Z,9.68
2023-04-09T16:56:08.854Z,9.10
2023-04-09T16:58:35.690Z,10.35
2023-04-09T17:01:02.509Z,10.60
2023-04-09T17:03:29.451Z,10.98
2023-04-09T17:05:57.288Z,9.65
2023-04-09T17:08:26.753Z,11.00
2023-04-09T17:11:01.888Z,10.43
2023-04-09T17:13:30.068Z,10.43
2023-04-09T17:15:56.762Z,8.85
2023-04-09T17:18:24.562Z,10.02
2023-04-09T17:20:54.292Z,10.13
2023-04-09T17:23:21.941Z,11.57
2023-04-09T17:25:49.319Z,12.98
2023-04-09T17:28:18.695Z,20.85
2023-04-09T17:30:45.701Z,12.32
2023-04-09T17:33:12.899Z,12.32
2023-04-09T17:35:39.914Z,15.65
2023-04-09T17:38:07.050Z,14.13
2023-04-09T17:40:34.353Z,11.85
2023-04-09T17:43:01.374Z,10.95
2023-04-09T17:45:28.658Z,14.70
2023-04-09T17:47:55.987Z,11.80
2023-04-09T17:50:22.855Z,11.20
2023-04-09T17:52:50.655Z,11.57
2023-04-09T17:55:17.898Z,15.20
2023-04-09T17:57:44.950Z,13.90
2023-04-09T18:00:12.369Z,12.30
2023-04-09T18:02:40.150Z,11.20
2023-04-09T18:05:07.592Z,11.57
2023-04-09T18:07:35.046Z,12.50
2023-04-09T18:10:03.270Z,12.25
2023-04-09T18:12:30.232Z,11.25
2023-04-09T18:14:57.128Z,12.00
2023-04-09T18:17:24.206Z,13.90
2023-04-09T18:19:54.326Z,14.13
2023-04-09T18:22:21.395Z,12.52
2023-04-09T18:24:52.605Z,8.23
2023-04-09T18:27:20.409Z,7.30
2023-04-09T18:29:49.890Z,7.65
2023-04-09T18:32:19.100Z,7.28
2023-04-09T18:34:48.234Z,5.78
2023-04-09T18:37:15.764Z,5.85
2023-04-09T18:39:42.432Z,6.50
2023-04-09T18:42:09.595Z,6.28
2023-04-09T18:44:37.730Z,5.53
2023-04-09T18:47:05.778Z,6.68
2023-04-09T18:49:33.611Z,6.03
2023-04-09T18:52:01.031Z,5.20
2023-04-09T18:54:28.468Z,5.95
2023-04-09T18:56:59.500Z,6.38
2023-04-09T18:59:26.406Z,7.45
2023-04-09T19:01:53.347Z,8.00
2023-04-09T19:04:20.335Z,7.45
2023-04-09T19:06:49.240Z,7.32
2023-04-09T19:09:16.006Z,11.45
2023-04-09T19:11:42.732Z,7.82
2023-04-09T19:14:09.940Z,8.52
2023-04-09T19:16:37.188Z,6.75
2023-04-09T19:19:04.301Z,6.72
2023-04-09T19:21:31.276Z,6.45
2023-04-09T19:24:00.299Z,7.30
2023-04-09T19:26:26.946Z,7.50
2023-04-09T19:28:53.927Z,5.90
2023-04-09T19:31:21.183Z,6.68
2023-04-09T19:33:47.900Z,6.18
2023-04-09T19:36:14.703Z,7.20
2023-04-09T19:38:41.825Z,7.22
2023-04-09T19:41:08.678Z,6.88
2023-04-09T19:43:37.390Z,6.70
2023-04-09T19:46:07.435Z,7.40
2023-04-09T19:48:35.399Z,6.53
2023-04-09T19:51:02.420Z,7.07
2023-04-09T19:53:29.396Z,5.80
2023-04-09T19:55:56.132Z,3.88
2023-04-09T19:58:23.146Z,5.53
2023-04-09T20:00:51.485Z,5.95
2023-04-09T20:03:18.733Z,6.45
2023-04-09T20:05:45.524Z,7.00
2023-04-09T20:08:15.591Z,6.78
2023-04-09T20:10:45.000Z,7.28
2023-04-09T20:13:12.042Z,7.65
2023-04-09T20:15:39.192Z,8.18
2023-04-09T20:18:06.431Z,7.72
2023-04-09T20:20:33.207Z,9.05
2023-04-09T20:22:59.962Z,9.05
2023-04-09T20:25:33.852Z,8.70
2023-04-09T20:28:04.567Z,7.75
2023-04-09T20:30:33.903Z,9.55
2023-04-09T20:33:01.369Z,8.25
2023-04-09T20:35:28.087Z,7.95
2023-04-09T20:37:55.223Z,7.20
2023-04-09T20:40:22.322Z,8.20
2023-04-09T20:42:49.010Z,7.68
2023-04-09T20:45:16.211Z,8.05
2023-04-09T20:47:43.000Z,7.47
2023-04-09T20:50:10.208Z,7.65
2023-04-09T20:52:37.260Z,7.82
2023-04-09T20:55:04.246Z,7.18
2023-04-09T20:57:31.086Z,7.90
2023-04-09T20:59:57.771Z,8.25
2023-04-09T21:02:24.863Z,10.73
2023-04-09T21:04:51.680Z,9.68
2023-04-09T21:07:18.484Z,11.38
2023-04-09T21:09:45.593Z,11.38
2023-04-09T21:12:12.336Z,11.23
2023-04-09T21:14:39.170Z,11.98
2023-04-09T21:17:06.004Z,12.32
2023-04-09T21:19:32.860Z,10.02
2023-04-09T21:21:59.466Z,9.98
2023-04-09T21:24:26.956Z,9.75
2023-04-09T21:26:53.749Z,10.25
2023-04-09T21:29:21.324Z,8.73
2023-04-09T21:31:49.158Z,9.43
2023-04-09T21:34:16.328Z,9.05
2023-04-09T21:36:45.343Z,8.73
2023-04-09T21:39:12.584Z,7.03
2023-04-09T21:41:39.537Z,7.45
2023-04-09T21:44:08.636Z,7.45
2023-04-09T21:46:37.072Z,7.45
2023-04-09T21:49:04.439Z,8.77
2023-04-09T21:51:31.633Z,8.55
2023-04-09T21:54:09.755Z,7.82
2023-04-09T21:56:37.326Z,9.00
2023-04-09T21:59:04.330Z,9.82
2023-04-09T22:01:32.120Z,8.57
2023-04-09T22:03:59.860Z,8.95
2023-04-09T22:06:27.438Z,10.98
2023-04-09T22:08:56.804Z,11.38
2023-04-09T22:11:27.464Z,10.63
2023-04-09T22:13:55.854Z,10.98
2023-04-09T22:16:22.883Z,10.00
2023-04-09T22:18:49.664Z,8.45
2023-04-09T22:21:17.272Z,8.90
2023-04-09T22:23:44.250Z,9.30
2023-04-09T22:26:11.054Z,8.48
2023-04-09T22:28:38.447Z,9.38
2023-04-09T22:31:05.908Z,8.45
2023-04-09T22:33:32.870Z,8.93
2023-04-09T22:35:59.804Z,8.52
2023-04-09T22:38:26.845Z,8.57
2023-04-09T22:40:53.846Z,8.52
2023-04-09T22:43:20.523Z,8.45
2023-04-09T22:45:54.958Z,9.13
2023-04-09T22:48:22.893Z,8.45
2023-04-09T22:50:51.681Z,8.85
2023-04-09T22:53:21.329Z,7.30
2023-04-09T22:55:51.241Z,7.38
2023-04-09T22:58:18.455Z,6.95
2023-04-09T23:00:45.217Z,7.70
2023-04-09T23:03:11.937Z,7.32
2023-04-09T23:05:39.451Z,6.80
2023-04-09T23:08:06.396Z,6.32
2023-04-09T23:10:34.106Z,7.40
2023-04-09T23:13:00.890Z,6.28
2023-04-09T23:15:28.613Z,6.85
2023-04-09T23:17:55.847Z,6.78
2023-04-09T23:20:22.760Z,6.38
2023-04-09T23:22:49.692Z,6.53
2023-04-09T23:25:16.837Z,5.18
2023-04-09T23:27:44.023Z,5.65
2023-04-09T23:30:11.686Z,5.57
2023-04-09T23:32:38.608Z,5.05
2023-04-09T23:35:05.540Z,5.05
2023-04-09T23:37:32.221Z,5.13
2023-04-09T23:39:58.905Z,4.63
2023-04-09T23:42:29.755Z,5.00
2023-04-09T23:44:56.473Z,4.50
2023-04-09T23:47:23.301Z,4.95
2023-04-09T23:49:50.141Z,4.43
2023-04-09T23:52:16.774Z,4.40
2023-04-09T23:54:49.619Z,4.53
2023-04-09T23:57:16.443Z,5.15
2023-04-09T23:59:43.161Z,4.60
